Time;durP1;ratioP1;P1;durP2;ratioP2;P2;SDS_P1;SDS_P2;PMS_P1;PMS_P2;Temp;Humidity;BMP_temperature;BMP_pressure;BME280_temperature;BME280_humidity;BME280_pressure;Samples;Min_cycle;Max_cycle;Signal;HPM_P1;HPM_P2
2022/01/30 00:00:05;;;;;;;22.35;3.72;;;;;;;;;;5052134;28;20069;-67
2022/01/30 00:02:31;;;;;;;22.75;3.35;;;;;;;;;;5069260;28;20032;-67
2022/01/30 00:04:57;;;;;;;20.50;4.05;;;;;;;;;;5071842;28;20495;-67
2022/01/30 00:07:23;;;;;;;22.30;3.70;;;;;;;;;;5072136;28;20036;-67
2022/01/30 00:09:50;;;;;;;18.00;3.60;;;;;;;;;;5071217;28;20119;-67
2022/01/30 00:12:19;;;;;;;21.85;3.15;;;;;;;;;;5071761;28;20072;-67
2022/01/30 00:14:45;;;;;;;27.15;4.43;;;;;;;;;;5070171;28;20045;-67
2022/01/30 00:17:22;;;;;;;23.27;3.92;;;;;;;;;;5066010;28;20051;-67
2022/01/30 00:19:57;;;;;;;18.63;2.67;;;;;;;;;;5067492;28;20048;-67
2022/01/30 00:22:43;;;;;;;16.92;3.03;;;;;;;;;;5060164;28;20380;-67
2022/01/30 00:25:15;;;;;;;25.20;3.53;;;;;;;;;;5050019;28;20053;-67
2022/01/30 00:27:48;;;;;;;17.73;3.28;;;;;;;;;;5071083;28;20044;-67
2022/01/30 00:30:16;;;;;;;24.45;3.55;;;;;;;;;;5103052;28;20067;-67
2022/01/30 00:32:42;;;;;;;20.65;3.63;;;;;;;;;;5071593;28;20398;-67
2022/01/30 00:35:11;;;;;;;20.13;3.53;;;;;;;;;;5071095;28;20052;-67
2022/01/30 00:37:40;;;;;;;21.63;3.05;;;;;;;;;;5069175;28;20075;-67
2022/01/30 00:40:07;;;;;;;18.55;3.58;;;;;;;;;;5071172;28;20041;-67
2022/01/30 00:42:33;;;;;;;17.30;3.97;;;;;;;;;;5071223;28;20036;-67
2022/01/30 00:44:59;;;;;;;16.50;4.07;;;;;;;;;;5070504;28;20635;-67
2022/01/30 00:47:25;;;;;;;14.15;2.88;;;;;;;;;;5071014;28;20040;-67
2022/01/30 00:49:51;;;;;;;25.00;3.45;;;;;;;;;;5070752;28;20076;-67
2022/01/30 00:52:17;;;;;;;18.33;3.17;;;;;;;;;;5070072;28;20075;-67
2022/01/30 00:54:44;;;;;;;20.73;3.67;;;;;;;;;;5070880;28;20072;-67
2022/01/30 00:57:10;;;;;;;21.63;4.22;;;;;;;;;;5070899;28;20039;-67
2022/01/30 00:59:36;;;;;;;24.75;3.15;;;;;;;;;;5070325;28;20044;-67
2022/01/30 01:02:02;;;;;;;24.65;4.60;;;;;;;;;;5070951;28;20063;-67
2022/01/30 01:04:28;;;;;;;20.98;3.30;;;;;;;;;;5070522;28;20140;-67
2022/01/30 01:06:54;;;;;;;22.40;3.63;;;;;;;;;;5070689;28;20129;-67
2022/01/30 01:09:25;;;;;;;14.38;2.17;;;;;;;;;;5070546;28;20124;-67
2022/01/30 01:25:36;;;;;;;23.98;3.42;;;;;;;;;;5065636;28;20152;-67
2022/01/30 01:28:02;;;;;;;22.60;3.72;;;;;;;;;;5050443;28;20055;-67
2022/01/30 01:30:28;;;;;;;27.17;4.05;;;;;;;;;;5049590;28;20048;-67
2022/01/30 01:32:54;;;;;;;22.90;3.75;;;;;;;;;;5050047;28;20127;-67
2022/01/30 01:35:20;;;;;;;21.08;3.83;;;;;;;;;;5050038;28;20040;-67
2022/01/30 01:37:52;;;;;;;26.85;3.72;;;;;;;;;;5049776;28;20048;-67
2022/01/30 01:40:18;;;;;;;21.15;2.50;;;;;;;;;;5050361;28;20045;-67
2022/01/30 01:42:44;;;;;;;17.67;3.42;;;;;;;;;;5050415;28;20044;-67
2022/01/30 01:45:10;;;;;;;22.55;4.20;;;;;;;;;;5049466;28;20126;-67
2022/01/30 01:47:37;;;;;;;18.08;2.70;;;;;;;;;;5048752;28;20167;-67
2022/01/30 01:50:03;;;;;;;18.42;2.53;;;;;;;;;;5050205;28;20376;-67
2022/01/30 01:52:30;;;;;;;16.33;3.17;;;;;;;;;;5047868;28;20381;-67
2022/01/30 01:54:59;;;;;;;33.53;3.88;;;;;;;;;;5048508;28;20061;-67
2022/01/30 01:57:26;;;;;;;17.88;3.13;;;;;;;;;;5050083;28;20090;-67
2022/01/30 01:59:53;;;;;;;18.80;3.25;;;;;;;;;;5049447;28;20037;-67
2022/01/30 02:02:19;;;;;;;22.08;3.10;;;;;;;;;;5050309;28;20048;-67
2022/01/30 02:04:46;;;;;;;22.65;3.35;;;;;;;;;;5054342;28;20045;-67
2022/01/30 02:10:00;;;;;;;21.38;3.10;;;;;;;;;;5086300;28;20052;-67
2022/01/30 02:12:34;;;;;;;20.77;3.03;;;;;;;;;;5054054;28;20179;-67
2022/01/30 02:15:17;;;;;;;23.52;4.82;;;;;;;;;;5051818;28;20056;-67
2022/01/30 02:26:17;;;;;;;29.10;3.95;;;;;;;;;;5081124;28;20062;-67
2022/01/30 02:28:43;;;;;;;26.17;4.10;;;;;;;;;;5071502;28;20060;-67
2022/01/30 02:31:13;;;;;;;25.00;3.50;;;;;;;;;;5073675;28;20036;-67
2022/01/30 02:33:40;;;;;;;26.95;4.00;;;;;;;;;;5073481;28;20044;-67
2022/01/30 02:36:06;;;;;;;23.52;3.88;;;;;;;;;;5105307;28;20056;-67
2022/01/30 02:38:33;;;;;;;23.25;3.80;;;;;;;;;;5074046;28;20044;-67
2022/01/30 02:40:59;;;;;;;25.30;3.75;;;;;;;;;;5073444;28;20479;-67
2022/01/30 02:43:33;;;;;;;24.88;3.60;;;;;;;;;;5072968;28;20044;-67
2022/01/30 02:46:21;;;;;;;22.55;3.90;;;;;;;;;;5073510;28;20044;-67
2022/01/30 02:48:52;;;;;;;27.00;4.35;;;;;;;;;;5073152;28;20544;-67
2022/01/30 02:51:21;;;;;;;38.30;4.55;;;;;;;;;;5072526;28;20391;-67
2022/01/30 02:54:02;;;;;;;25.08;4.60;;;;;;;;;;5105692;28;20507;-67
2022/01/30 02:56:29;;;;;;;32.63;4.60;;;;;;;;;;5073223;28;20049;-67
2022/01/30 02:58:55;;;;;;;28.60;4.10;;;;;;;;;;5072745;28;20036;-67
2022/01/30 03:01:21;;;;;;;38.55;4.35;;;;;;;;;;5105622;28;20047;-67
2022/01/30 03:03:47;;;;;;;23.95;4.45;;;;;;;;;;5072849;28;20120;-67
2022/01/30 03:06:13;;;;;;;26.73;3.88;;;;;;;;;;5072833;28;20040;-67
2022/01/30 03:08:39;;;;;;;22.25;3.63;;;;;;;;;;5073227;28;20044;-67
2022/01/30 03:11:05;;;;;;;28.88;3.88;;;;;;;;;;5073242;28;20519;-67
2022/01/30 03:13:31;;;;;;;19.33;3.28;;;;;;;;;;5071917;28;20044;-67
2022/01/30 03:16:00;;;;;;;25.30;4.65;;;;;;;;;;5104630;28;20064;-67
2022/01/30 03:18:26;;;;;;;14.02;2.58;;;;;;;;;;5072778;28;20052;-67
2022/01/30 03:20:52;;;;;;;27.88;3.78;;;;;;;;;;5104830;28;20059;-67
2022/01/30 03:23:18;;;;;;;22.17;4.00;;;;;;;;;;5105515;28;20032;-67
2022/01/30 03:25:44;;;;;;;18.35;3.03;;;;;;;;;;5066885;28;20160;-67
2022/01/30 03:28:10;;;;;;;22.48;3.90;;;;;;;;;;5051990;28;20041;-67
2022/01/30 03:30:37;;;;;;;20.85;3.50;;;;;;;;;;5052691;28;20545;-67
2022/01/30 03:33:03;;;;;;;24.08;3.30;;;;;;;;;;5052543;28;20052;-67
2022/01/30 03:35:29;;;;;;;23.10;3.53;;;;;;;;;;5052113;28;20087;-67
2022/01/30 03:37:55;;;;;;;26.20;3.90;;;;;;;;;;5052805;28;20479;-67
2022/01/30 03:40:22;;;;;;;17.33;3.28;;;;;;;;;;5051288;28;20045;-67
2022/01/30 03:42:48;;;;;;;30.60;4.65;;;;;;;;;;5051890;28;20044;-67
2022/01/30 03:45:14;;;;;;;37.83;4.50;;;;;;;;;;5052392;28;20495;-67
2022/01/30 03:47:40;;;;;;;25.38;4.88;;;;;;;;;;5052465;28;20045;-67
2022/01/30 03:50:06;;;;;;;31.08;4.68;;;;;;;;;;5051744;28;20048;-67
2022/01/30 03:52:32;;;;;;;32.78;4.35;;;;;;;;;;5052382;28;20041;-67
2022/01/30 03:54:58;;;;;;;30.83;5.90;;;;;;;;;;5052231;28;20045;-67
2022/01/30 03:57:24;;;;;;;35.42;5.13;;;;;;;;;;5051629;28;20060;-67
2022/01/30 03:59:50;;;;;;;32.78;4.72;;;;;;;;;;5052101;28;20045;-67
2022/01/30 04:02:16;;;;;;;27.42;4.22;;;;;;;;;;5052010;28;20033;-67
2022/01/30 04:04:42;;;;;;;35.78;5.05;;;;;;;;;;5050985;28;20495;-67
2022/01/30 04:07:09;;;;;;;25.88;4.80;;;;;;;;;;5052166;28;20044;-67
2022/01/30 04:09:35;;;;;;;32.20;6.68;;;;;;;;;;5051985;28;20049;-67
2022/01/30 04:12:01;;;;;;;39.35;6.65;;;;;;;;;;5051386;28;20040;-67
2022/01/30 04:14:27;;;;;;;31.92;5.25;;;;;;;;;;5051545;28;20037;-67
2022/01/30 04:16:53;;;;;;;34.78;5.75;;;;;;;;;;5051678;28;20048;-67
2022/01/30 04:19:19;;;;;;;35.70;5.15;;;;;;;;;;5051685;28;20082;-67
2022/01/30 04:21:45;;;;;;;33.00;6.03;;;;;;;;;;5051146;28;20092;-67
2022/01/30 04:24:11;;;;;;;46.63;6.72;;;;;;;;;;5051445;28;20045;-66
2022/01/30 04:26:37;;;;;;;38.03;4.57;;;;;;;;;;5063802;28;20059;-66
2022/01/30 04:29:03;;;;;;;33.50;5.32;;;;;;;;;;5070866;28;20127;-66
2022/01/30 04:31:29;;;;;;;33.60;5.78;;;;;;;;;;5070934;28;20045;-66
2022/01/30 04:33:56;;;;;;;37.22;5.30;;;;;;;;;;5071163;28;20509;-66
2022/01/30 04:36:27;;;;;;;28.73;4.43;;;;;;;;;;5070713;28;20033;-66
2022/01/30 04:39:29;;;;;;;36.40;6.05;;;;;;;;;;5071056;28;20105;-66
2022/01/30 05:08:02;;;;;;;34.55;5.45;;;;;;;;;;5070917;28;20495;-66
2022/01/30 05:10:29;;;;;;;42.15;6.03;;;;;;;;;;5070567;28;20044;-66
2022/01/30 05:12:57;;;;;;;37.25;6.28;;;;;;;;;;5102654;28;20052;-66
2022/01/30 05:15:26;;;;;;;47.30;6.22;;;;;;;;;;5103101;28;20135;-66
2022/01/30 05:17:52;;;;;;;50.70;6.10;;;;;;;;;;5070709;28;20040;-66
2022/01/30 05:20:18;;;;;;;35.92;6.07;;;;;;;;;;5070184;28;20040;-66
2022/01/30 05:22:45;;;;;;;36.05;5.88;;;;;;;;;;5102846;28;20040;-66
2022/01/30 05:25:11;;;;;;;46.75;6.45;;;;;;;;;;5069154;28;20052;-66
2022/01/30 05:27:37;;;;;;;36.13;5.95;;;;;;;;;;5049911;28;20098;-66
2022/01/30 05:30:04;;;;;;;41.15;6.47;;;;;;;;;;5050402;28;20036;-66
2022/01/30 05:32:30;;;;;;;44.95;6.65;;;;;;;;;;5050352;28;20029;-66
2022/01/30 05:34:56;;;;;;;42.60;6.63;;;;;;;;;;5049368;28;20056;-66
2022/01/30 05:37:22;;;;;;;50.83;6.35;;;;;;;;;;5049614;28;20467;-66
2022/01/30 05:39:48;;;;;;;36.58;5.47;;;;;;;;;;5049068;28;20094;-66
2022/01/30 05:42:15;;;;;;;43.55;6.45;;;;;;;;;;5049756;28;20041;-66
2022/01/30 05:44:59;;;;;;;41.97;5.75;;;;;;;;;;5050401;28;20045;-66
2022/01/30 05:47:36;;;;;;;36.22;5.63;;;;;;;;;;5050235;28;20056;-66
2022/01/30 05:50:02;;;;;;;41.28;5.90;;;;;;;;;;5049645;28;20041;-66
2022/01/30 05:52:28;;;;;;;33.95;5.40;;;;;;;;;;5049923;28;20127;-66
2022/01/30 05:54:54;;;;;;;34.25;5.85;;;;;;;;;;5050233;28;20668;-66
2022/01/30 05:57:20;;;;;;;45.25;6.95;;;;;;;;;;5049573;28;20037;-66
2022/01/30 05:59:46;;;;;;;41.50;5.75;;;;;;;;;;5050139;28;20037;-66
2022/01/30 06:02:12;;;;;;;37.50;6.85;;;;;;;;;;5050055;28;20498;-66
2022/01/30 06:04:38;;;;;;;39.25;6.28;;;;;;;;;;5049339;28;20403;-66
2022/01/30 06:07:06;;;;;;;50.13;6.57;;;;;;;;;;5050020;28;20063;-66
2022/01/30 06:09:32;;;;;;;38.30;5.70;;;;;;;;;;5065052;28;20053;-66
2022/01/30 06:11:58;;;;;;;50.65;6.70;;;;;;;;;;5048944;28;20052;-66
2022/01/30 06:14:24;;;;;;;36.75;6.13;;;;;;;;;;5049861;28;20041;-66
2022/01/30 06:16:53;;;;;;;38.53;6.78;;;;;;;;;;5049992;28;20048;-66
2022/01/30 06:19:19;;;;;;;38.85;7.35;;;;;;;;;;5049321;28;20510;-66
2022/01/30 06:21:45;;;;;;;43.83;5.55;;;;;;;;;;5049710;28;20041;-66
2022/01/30 06:24:11;;;;;;;34.80;5.53;;;;;;;;;;5048527;28;20052;-66
2022/01/30 06:26:37;;;;;;;36.08;6.05;;;;;;;;;;5061716;28;20056;-66
2022/01/30 06:29:03;;;;;;;46.60;5.97;;;;;;;;;;5069697;28;20123;-66
2022/01/30 06:31:29;;;;;;;43.08;6.80;;;;;;;;;;5069738;28;20449;-66
2022/01/30 06:33:55;;;;;;;36.80;6.70;;;;;;;;;;5069167;28;20076;-66
2022/01/30 06:36:21;;;;;;;46.05;6.10;;;;;;;;;;5069887;28;20064;-66
2022/01/30 06:38:49;;;;;;;44.67;6.97;;;;;;;;;;5102115;28;20048;-66
2022/01/30 06:41:15;;;;;;;44.67;5.78;;;;;;;;;;5069208;28;20484;-66
2022/01/30 06:43:41;;;;;;;38.47;6.13;;;;;;;;;;5069592;28;20036;-66
2022/01/30 06:46:10;;;;;;;35.58;5.63;;;;;;;;;;5069493;28;20036;-66
2022/01/30 06:48:36;;;;;;;33.47;5.22;;;;;;;;;;5069732;28;20090;-66
2022/01/30 06:51:02;;;;;;;47.83;6.72;;;;;;;;;;5073211;28;20044;-66
2022/01/30 06:53:28;;;;;;;37.13;5.60;;;;;;;;;;5105538;28;20060;-66
2022/01/30 06:55:54;;;;;;;48.75;7.40;;;;;;;;;;5072482;28;20040;-66
2022/01/30 06:58:20;;;;;;;34.95;6.07;;;;;;;;;;5073203;28;20041;-66
2022/01/30 07:00:46;;;;;;;40.55;7.20;;;;;;;;;;5073279;28;20040;-66
2022/01/30 07:03:12;;;;;;;33.22;5.90;;;;;;;;;;5072505;28;20048;-66
2022/01/30 07:05:38;;;;;;;35.25;5.63;;;;;;;;;;5073097;28;20052;-66
2022/01/30 07:08:04;;;;;;;47.10;7.03;;;;;;;;;;5073052;28;20087;-66
2022/01/30 07:10:30;;;;;;;32.13;6.25;;;;;;;;;;5072287;28;20499;-66
2022/01/30 07:12:56;;;;;;;33.88;5.63;;;;;;;;;;5072809;28;20127;-66
2022/01/30 07:15:22;;;;;;;33.85;5.90;;;;;;;;;;5072930;28;20391;-66
2022/01/30 07:17:48;;;;;;;40.00;5.45;;;;;;;;;;5104559;28;20045;-67
2022/01/30 07:20:14;;;;;;;33.20;6.15;;;;;;;;;;5072915;28;20045;-67
2022/01/30 07:22:40;;;;;;;41.17;6.88;;;;;;;;;;5072733;28;20036;-67
2022/01/30 07:25:07;;;;;;;35.58;5.72;;;;;;;;;;5071608;28;20048;-67
2022/01/30 07:27:34;;;;;;;32.83;5.47;;;;;;;;;;5052647;28;20040;-67
2022/01/30 07:30:00;;;;;;;42.47;6.80;;;;;;;;;;5052400;28;20037;-67
2022/01/30 07:32:26;;;;;;;37.67;6.25;;;;;;;;;;5052126;28;20368;-67
2022/01/30 07:34:52;;;;;;;37.47;5.63;;;;;;;;;;5052543;28;20044;-67
2022/01/30 07:37:19;;;;;;;46.17;5.80;;;;;;;;;;5051426;28;20048;-67
2022/01/30 07:39:45;;;;;;;42.05;7.22;;;;;;;;;;5051713;28;20087;-67
2022/01/30 07:42:11;;;;;;;47.63;6.95;;;;;;;;;;5052485;28;20087;-67
2022/01/30 07:44:38;;;;;;;51.08;7.10;;;;;;;;;;5052360;28;20040;-67
2022/01/30 07:47:04;;;;;;;41.30;5.97;;;;;;;;;;5051844;28;20033;-67
2022/01/30 07:49:30;;;;;;;42.40;6.93;;;;;;;;;;5050996;28;20049;-67
2022/01/30 07:51:56;;;;;;;43.53;6.25;;;;;;;;;;5052356;28;20048;-67
2022/01/30 07:54:22;;;;;;;44.17;7.57;;;;;;;;;;5049929;28;20048;-67
2022/01/30 07:56:48;;;;;;;46.35;7.20;;;;;;;;;;5051864;28;20455;-67
2022/01/30 07:59:14;;;;;;;45.83;6.93;;;;;;;;;;5052111;28;20044;-67
2022/01/30 08:01:40;;;;;;;51.47;6.57;;;;;;;;;;5050680;28;20148;-67
2022/01/30 08:04:07;;;;;;;46.97;6.57;;;;;;;;;;5050826;28;20450;-67
2022/01/30 08:06:36;;;;;;;43.33;6.82;;;;;;;;;;5050624;28;20045;-67
2022/01/30 08:09:03;;;;;;;41.60;6.00;;;;;;;;;;5049795;28;20048;-67
2022/01/30 08:11:29;;;;;;;36.53;6.40;;;;;;;;;;5051655;28;20072;-67
2022/01/30 08:13:55;;;;;;;42.90;6.90;;;;;;;;;;5051900;28;20503;-66
2022/01/30 08:16:23;;;;;;;54.60;8.15;;;;;;;;;;5051198;28;20495;-66
2022/01/30 08:18:49;;;;;;;44.50;7.45;;;;;;;;;;5051798;28;20479;-66
2022/01/30 08:21:15;;;;;;;38.92;6.70;;;;;;;;;;5051896;28;20048;-67
2022/01/30 08:23:41;;;;;;;49.58;6.75;;;;;;;;;;5049476;28;20044;-66
2022/01/30 08:26:07;;;;;;;39.40;6.35;;;;;;;;;;5060096;28;20060;-66
2022/01/30 08:28:33;;;;;;;37.15;6.57;;;;;;;;;;5103739;28;20094;-66
2022/01/30 08:31:00;;;;;;;50.90;7.78;;;;;;;;;;5071143;28;20425;-66
2022/01/30 08:33:27;;;;;;;37.83;5.72;;;;;;;;;;5103441;28;20049;-66
2022/01/30 08:35:53;;;;;;;38.88;6.20;;;;;;;;;;5103910;28;20063;-66
2022/01/30 08:38:19;;;;;;;46.38;6.95;;;;;;;;;;5071324;28;20044;-66
2022/01/30 08:40:46;;;;;;;33.08;6.05;;;;;;;;;;5103304;28;20037;-66
2022/01/30 08:43:12;;;;;;;34.92;5.57;;;;;;;;;;5071358;28;20101;-66
2022/01/30 08:45:38;;;;;;;37.53;5.88;;;;;;;;;;5071176;28;20090;-66
2022/01/30 08:48:04;;;;;;;42.50;6.00;;;;;;;;;;5070565;28;20051;-66
2022/01/30 08:50:30;;;;;;;33.13;5.63;;;;;;;;;;5070877;28;20044;-66
2022/01/30 08:52:56;;;;;;;35.67;6.53;;;;;;;;;;5071065;28;20074;-66
2022/01/30 08:55:22;;;;;;;41.90;6.13;;;;;;;;;;5102941;28;20050;-66
2022/01/30 08:57:48;;;;;;;31.35;6.28;;;;;;;;;;5070838;28;20043;-66
2022/01/30 09:00:16;;;;;;;39.65;6.47;;;;;;;;;;5103612;28;20033;-66
2022/01/30 09:02:42;;;;;;;36.50;5.53;;;;;;;;;;5070218;28;20115;-66
2022/01/30 09:05:08;;;;;;;38.42;6.65;;;;;;;;;;5070406;28;20505;-66
2022/01/30 09:07:35;;;;;;;38.67;6.90;;;;;;;;;;5070869;28;20162;-66
2022/01/30 09:10:01;;;;;;;35.45;5.70;;;;;;;;;;5070150;28;20072;-66
2022/01/30 09:12:27;;;;;;;36.35;5.45;;;;;;;;;;5070917;28;20395;-66
2022/01/30 09:14:54;;;;;;;44.70;6.85;;;;;;;;;;5070396;28;20450;-66
2022/01/30 09:17:22;;;;;;;35.13;7.05;;;;;;;;;;5069936;28;20036;-66
2022/01/30 09:19:48;;;;;;;46.03;7.18;;;;;;;;;;5070729;28;20033;-66
2022/01/30 09:22:15;;;;;;;36.17;5.32;;;;;;;;;;5070508;28;20368;-66
2022/01/30 09:24:41;;;;;;;45.95;6.15;;;;;;;;;;5069750;28;20040;-66
2022/01/30 09:27:08;;;;;;;38.42;6.20;;;;;;;;;;5053113;28;20151;-66
2022/01/30 09:29:34;;;;;;;37.00;6.38;;;;;;;;;;5050633;28;20080;-67
2022/01/30 09:32:01;;;;;;;32.95;6.18;;;;;;;;;;5049853;28;20509;-67
2022/01/30 09:34:27;;;;;;;38.05;6.00;;;;;;;;;;5050262;28;20052;-67
2022/01/30 09:36:53;;;;;;;45.60;7.32;;;;;;;;;;5050384;28;20468;-67
2022/01/30 09:39:20;;;;;;;37.92;5.93;;;;;;;;;;5050088;28;20039;-67
2022/01/30 09:41:46;;;;;;;42.85;6.90;;;;;;;;;;5050175;28;20159;-67
2022/01/30 09:44:12;;;;;;;34.50;6.05;;;;;;;;;;5050252;28;20384;-67
2022/01/30 09:46:45;;;;;;;37.40;6.18;;;;;;;;;;5049535;28;20044;-67
2022/01/30 09:49:12;;;;;;;37.00;5.85;;;;;;;;;;5050542;28;20555;-67
2022/01/30 09:51:39;;;;;;;33.13;6.22;;;;;;;;;;5049985;28;20077;-67
2022/01/30 09:54:06;;;;;;;43.83;6.75;;;;;;;;;;5049448;28;20049;-67
2022/01/30 09:56:32;;;;;;;38.85;6.18;;;;;;;;;;5050152;28;20163;-67
2022/01/30 09:58:58;;;;;;;35.88;5.68;;;;;;;;;;5050258;28;20091;-67
2022/01/30 10:01:30;;;;;;;37.28;6.63;;;;;;;;;;5049615;28;20450;-67
2022/01/30 10:03:56;;;;;;;46.67;7.40;;;;;;;;;;5050231;28;20051;-67
2022/01/30 10:06:25;;;;;;;32.45;5.75;;;;;;;;;;5050187;28;20123;-67
2022/01/30 10:08:55;;;;;;;37.08;5.78;;;;;;;;;;5049529;28;20403;-67
2022/01/30 10:11:45;;;;;;;43.63;6.50;;;;;;;;;;5048390;28;20107;-67
2022/01/30 10:14:11;;;;;;;41.53;6.13;;;;;;;;;;5048508;28;20102;-67
2022/01/30 10:16:45;;;;;;;37.30;6.57;;;;;;;;;;5047794;28;20403;-67
2022/01/30 10:19:17;;;;;;;36.90;6.15;;;;;;;;;;5049661;28;20094;-67
2022/01/30 10:21:44;;;;;;;39.05;6.10;;;;;;;;;;5050053;28;20037;-67
2022/01/30 10:24:19;;;;;;;40.53;5.32;;;;;;;;;;5050474;28;20048;-67
2022/01/30 10:26:45;;;;;;;37.35;6.43;;;;;;;;;;5067450;28;20094;-67
2022/01/30 10:29:21;;;;;;;35.40;6.65;;;;;;;;;;5074103;28;20048;-67
2022/01/30 10:32:03;;;;;;;41.95;6.20;;;;;;;;;;5073281;28;20044;-67
2022/01/30 10:34:29;;;;;;;38.20;6.40;;;;;;;;;;5073517;28;20045;-67
2022/01/30 10:37:13;;;;;;;44.22;6.32;;;;;;;;;;5072892;28;20051;-67
2022/01/30 10:39:59;;;;;;;42.00;6.78;;;;;;;;;;5073670;28;20037;-67
2022/01/30 10:42:39;;;;;;;41.53;6.68;;;;;;;;;;5073743;28;20040;-67
2022/01/30 10:45:06;;;;;;;52.38;7.82;;;;;;;;;;5073120;28;20051;-67
2022/01/30 10:47:33;;;;;;;54.08;6.88;;;;;;;;;;5073544;28;20526;-67
2022/01/30 10:50:00;;;;;;;47.40;7.13;;;;;;;;;;5073416;28;20410;-67
2022/01/30 10:52:26;;;;;;;37.08;6.95;;;;;;;;;;5105091;28;20095;-67
2022/01/30 10:54:52;;;;;;;42.67;6.60;;;;;;;;;;5073115;28;20051;-67
2022/01/30 10:57:18;;;;;;;32.22;6.47;;;;;;;;;;5073657;28;20033;-67
2022/01/30 10:59:52;;;;;;;41.17;5.75;;;;;;;;;;5072512;28;20440;-67
2022/01/30 11:02:23;;;;;;;54.30;7.18;;;;;;;;;;5073446;28;20465;-67
2022/01/30 11:04:49;;;;;;;38.53;6.20;;;;;;;;;;5105563;28;20075;-67
2022/01/30 11:07:19;;;;;;;44.60;6.60;;;;;;;;;;5105144;28;20044;-67
2022/01/30 11:09:55;;;;;;;45.97;6.22;;;;;;;;;;5073190;28;20064;-67
2022/01/30 11:12:31;;;;;;;44.30;6.20;;;;;;;;;;5072989;28;20041;-67
2022/01/30 11:15:15;;;;;;;40.47;6.85;;;;;;;;;;5104552;28;20056;-67
2022/01/30 11:17:43;;;;;;;42.70;7.63;;;;;;;;;;5105302;28;20084;-67
2022/01/30 11:20:11;;;;;;;39.78;5.85;;;;;;;;;;5072836;28;20513;-67
2022/01/30 11:22:38;;;;;;;43.53;6.70;;;;;;;;;;5072311;28;20116;-67
2022/01/30 11:25:05;;;;;;;49.70;7.32;;;;;;;;;;5072474;28;20140;-67
2022/01/30 11:27:32;;;;;;;33.03;5.78;;;;;;;;;;5072869;28;20098;-67
2022/01/30 11:29:59;;;;;;;33.95;5.53;;;;;;;;;;5072006;28;20048;-67
2022/01/30 11:32:28;;;;;;;27.45;5.20;;;;;;;;;;5071411;28;20048;-67
2022/01/30 11:34:55;;;;;;;47.17;6.35;;;;;;;;;;5070374;28;20049;-67
2022/01/30 11:37:22;;;;;;;34.03;6.07;;;;;;;;;;5071635;28;20036;-67
2022/01/30 11:39:52;;;;;;;32.60;5.90;;;;;;;;;;5072618;28;20364;-67
2022/01/30 11:42:20;;;;;;;33.47;4.97;;;;;;;;;;5072650;28;20116;-67
2022/01/30 11:44:47;;;;;;;36.25;5.75;;;;;;;;;;5071643;28;20044;-67
2022/01/30 11:47:13;;;;;;;33.67;5.97;;;;;;;;;;5072617;28;20041;-67
2022/01/30 11:49:41;;;;;;;27.20;5.60;;;;;;;;;;5070794;28;20048;-67
2022/01/30 11:52:09;;;;;;;36.72;6.18;;;;;;;;;;5071716;28;20071;-67
2022/01/30 11:54:35;;;;;;;34.47;5.70;;;;;;;;;;5071834;28;20044;-67
2022/01/30 11:57:02;;;;;;;32.28;6.25;;;;;;;;;;5071931;28;20398;-67
2022/01/30 11:59:36;;;;;;;30.67;5.68;;;;;;;;;;5070094;28;20068;-67
2022/01/30 12:02:21;;;;;;;30.17;5.35;;;;;;;;;;5072297;28;20510;-67
2022/01/30 12:04:53;;;;;;;39.90;5.90;;;;;;;;;;5072031;28;20044;-67
2022/01/30 12:07:38;;;;;;;30.70;5.30;;;;;;;;;;5071587;28;20119;-67
2022/01/30 12:10:30;;;;;;;37.75;6.13;;;;;;;;;;5072096;28;20127;-67
2022/01/30 12:13:04;;;;;;;32.45;4.88;;;;;;;;;;5070373;28;20052;-67
2022/01/30 12:15:43;;;;;;;39.50;6.25;;;;;;;;;;5071978;28;20419;-67
2022/01/30 12:18:27;;;;;;;25.00;4.75;;;;;;;;;;5072009;28;20096;-67
2022/01/30 12:20:59;;;;;;;35.00;5.38;;;;;;;;;;5071339;28;20115;-67
2022/01/30 12:23:29;;;;;;;40.60;5.55;;;;;;;;;;5071651;28;20036;-67
2022/01/30 12:26:03;;;;;;;28.88;4.82;;;;;;;;;;5070236;28;20556;-67
2022/01/30 12:28:46;;;;;;;32.38;5.00;;;;;;;;;;5070873;28;20044;-67
2022/01/30 12:31:30;;;;;;;25.48;5.03;;;;;;;;;;5071136;28;20043;-67
2022/01/30 12:34:00;;;;;;;19.65;3.97;;;;;;;;;;5071078;28;20056;-67
2022/01/30 12:36:26;;;;;;;28.15;4.65;;;;;;;;;;5070507;28;20047;-67
2022/01/30 12:38:54;;;;;;;27.40;5.15;;;;;;;;;;5071139;28;20040;-67
2022/01/30 12:41:20;;;;;;;27.92;5.20;;;;;;;;;;5071246;28;20415;-67
2022/01/30 12:43:50;;;;;;;24.10;4.95;;;;;;;;;;5070539;28;20070;-67
2022/01/30 12:46:16;;;;;;;33.97;5.63;;;;;;;;;;5070707;28;20044;-67
2022/01/30 12:48:43;;;;;;;28.35;5.20;;;;;;;;;;5103366;28;20135;-67
2022/01/30 12:51:14;;;;;;;32.22;4.93;;;;;;;;;;5103094;28;20055;-67
2022/01/30 12:53:41;;;;;;;29.30;4.50;;;;;;;;;;5070980;28;20102;-67
2022/01/30 12:56:07;;;;;;;32.97;5.60;;;;;;;;;;5071116;28;20036;-67
2022/01/30 12:58:35;;;;;;;37.33;5.68;;;;;;;;;;5102644;28;20177;-67
2022/01/30 13:01:14;;;;;;;34.72;5.53;;;;;;;;;;5070873;28;20674;-67
2022/01/30 13:03:41;;;;;;;28.13;4.53;;;;;;;;;;5103109;28;20102;-67
2022/01/30 13:06:07;;;;;;;31.30;4.80;;;;;;;;;;5070207;28;20041;-67
2022/01/30 13:08:46;;;;;;;36.22;6.40;;;;;;;;;;5070764;28;20482;-67
2022/01/30 13:11:20;;;;;;;35.22;5.45;;;;;;;;;;5070604;28;20044;-67
2022/01/30 13:13:55;;;;;;;28.85;4.65;;;;;;;;;;5070091;28;20090;-67
2022/01/30 13:16:28;;;;;;;30.58;5.35;;;;;;;;;;5070633;28;20076;-67
2022/01/30 13:18:54;;;;;;;23.25;4.53;;;;;;;;;;5070569;28;20032;-67
2022/01/30 13:21:22;;;;;;;37.40;4.90;;;;;;;;;;5069891;28;20112;-67
2022/01/30 13:23:48;;;;;;;34.58;5.50;;;;;;;;;;5070502;28;20044;-67
2022/01/30 13:26:27;;;;;;;38.60;6.28;;;;;;;;;;5059341;28;20048;-67
2022/01/30 13:28:53;;;;;;;29.63;4.75;;;;;;;;;;5049982;28;20036;-67
2022/01/30 13:31:19;;;;;;;28.85;4.95;;;;;;;;;;5050418;28;20064;-67
2022/01/30 13:33:45;;;;;;;23.98;5.20;;;;;;;;;;5048814;28;20041;-67
2022/01/30 13:36:24;;;;;;;24.35;4.78;;;;;;;;;;5049824;28;20034;-67
2022/01/30 13:38:50;;;;;;;22.92;4.32;;;;;;;;;;5050442;28;20044;-67
2022/01/30 13:41:28;;;;;;;23.95;3.83;;;;;;;;;;5050419;28;20110;-67
2022/01/30 13:44:00;;;;;;;26.73;4.07;;;;;;;;;;5049708;28;20403;-67
2022/01/30 13:49:11;;;;;;;19.00;3.78;;;;;;;;;;5050034;28;20041;-67
2022/01/30 13:51:38;;;;;;;18.20;4.00;;;;;;;;;;5049748;28;20075;-67
2022/01/30 13:54:05;;;;;;;27.60;4.93;;;;;;;;;;5049873;28;20487;-67
2022/01/30 13:56:31;;;;;;;24.98;4.45;;;;;;;;;;5048679;28;20048;-67
2022/01/30 13:58:57;;;;;;;25.05;4.82;;;;;;;;;;5048808;28;20041;-67
2022/01/30 14:01:30;;;;;;;26.92;4.20;;;;;;;;;;5050229;28;20064;-67
2022/01/30 14:04:09;;;;;;;26.70;4.65;;;;;;;;;;5049684;28;20045;-67
2022/01/30 14:06:35;;;;;;;33.55;5.18;;;;;;;;;;5048862;28;20044;-67
2022/01/30 14:09:03;;;;;;;29.90;4.93;;;;;;;;;;5049717;28;20045;-67
2022/01/30 14:11:31;;;;;;;25.05;4.53;;;;;;;;;;5049459;28;20052;-67
2022/01/30 14:14:08;;;;;;;31.33;5.07;;;;;;;;;;5049731;28;20409;-67
2022/01/30 14:16:35;;;;;;;30.17;4.93;;;;;;;;;;5049994;28;20071;-67
2022/01/30 14:19:01;;;;;;;30.52;4.93;;;;;;;;;;5049431;28;20040;-67
2022/01/30 14:21:31;;;;;;;40.30;5.88;;;;;;;;;;5049788;28;20081;-66
2022/01/30 14:23:57;;;;;;;28.65;4.75;;;;;;;;;;5049476;28;20126;-66
2022/01/30 14:26:25;;;;;;;38.88;5.13;;;;;;;;;;5059842;28;20576;-66
2022/01/30 14:29:07;;;;;;;44.55;5.55;;;;;;;;;;5069831;28;20045;-66
2022/01/30 14:31:34;;;;;;;33.63;6.18;;;;;;;;;;5102135;28;20044;-66
2022/01/30 14:34:00;;;;;;;29.17;5.05;;;;;;;;;;5068974;28;20055;-66
2022/01/30 14:36:29;;;;;;;33.92;5.13;;;;;;;;;;5102241;28;20040;-66
2022/01/30 14:38:56;;;;;;;28.27;4.80;;;;;;;;;;5069912;28;20044;-67
2022/01/30 14:41:22;;;;;;;36.15;4.90;;;;;;;;;;5069188;28;20041;-66
2022/01/30 14:43:47;;;;;;;40.55;5.57;;;;;;;;;;5069620;28;20051;-66
2022/01/30 14:46:14;;;;;;;26.70;5.57;;;;;;;;;;5069715;28;20123;-66
2022/01/30 14:48:40;;;;;;;39.47;5.68;;;;;;;;;;5068965;28;20115;-66
2022/01/30 14:51:07;;;;;;;35.50;6.00;;;;;;;;;;5069526;28;20390;-66
2022/01/30 14:53:33;;;;;;;41.33;5.90;;;;;;;;;;5069354;28;20052;-66
2022/01/30 14:55:59;;;;;;;38.92;6.65;;;;;;;;;;5069106;28;20036;-66
2022/01/30 14:58:25;;;;;;;37.35;5.85;;;;;;;;;;5069726;28;20532;-66
2022/01/30 15:00:55;;;;;;;35.30;5.10;;;;;;;;;;5069678;28;20049;-66
2022/01/30 15:03:22;;;;;;;43.90;6.05;;;;;;;;;;5068776;28;20078;-66
2022/01/30 15:05:48;;;;;;;41.20;5.88;;;;;;;;;;5069531;28;20072;-66
2022/01/30 15:08:14;;;;;;;29.83;5.55;;;;;;;;;;5069373;28;20067;-66
2022/01/30 15:10:40;;;;;;;39.28;5.88;;;;;;;;;;5071318;28;20036;-66
2022/01/30 15:13:11;;;;;;;39.95;5.97;;;;;;;;;;5072807;28;20044;-66
2022/01/30 15:15:39;;;;;;;29.57;4.70;;;;;;;;;;5072934;28;20482;-66
2022/01/30 15:18:12;;;;;;;26.48;5.15;;;;;;;;;;5105228;28;20048;-66
2022/01/30 15:20:38;;;;;;;33.67;5.32;;;;;;;;;;5072890;28;20049;-66
2022/01/30 15:23:04;;;;;;;30.85;5.03;;;;;;;;;;5073150;28;20039;-67
2022/01/30 15:25:30;;;;;;;31.77;6.05;;;;;;;;;;5068243;28;20044;-67
2022/01/30 15:27:56;;;;;;;31.98;5.88;;;;;;;;;;5051305;28;20060;-67
2022/01/30 15:30:22;;;;;;;31.45;5.72;;;;;;;;;;5052755;28;20045;-67